Time;durP1;ratioP1;P1;durP2;ratioP2;P2;SDS_P1;SDS_P2;PMS_P1;PMS_P2;Temp;Humidity;BMP_temperature;BMP_pressure;BME280_temperature;BME280_humidity;BME280_pressure;Samples;Min_cycle;Max_cycle;Signal;HPM_P1;HPM_P2
2023/06/02 00:00:53;;;;;;;;;;;11.00;99.90;;;;;;5134157;27;19923;-69
2023/06/02 00:03:19;;;;;;;;;;;11.00;99.90;;;;;;5169487;27;19931;-69
2023/06/02 00:05:46;;;;;;;;;;;11.10;99.90;;;;;;5134302;27;19972;-69
2023/06/02 00:08:12;;;;;;;;;;;11.10;99.90;;;;;;5117270;27;20474;-69
2023/06/02 00:10:38;;;;;;;;;;;11.10;99.90;;;;;;5134397;27;19974;-69
2023/06/02 00:13:04;;;;;;;;;;;11.10;99.90;;;;;;5134764;27;20032;-69
2023/06/02 00:15:31;;;;;;;;;;;11.10;99.90;;;;;;5134624;27;19924;-70
2023/06/02 00:17:57;;;;;;;;;;;11.10;99.90;;;;;;5133731;27;20063;-69
2023/06/02 00:20:26;;;;;;;;;;;11.00;99.90;;;;;;5134204;27;20394;-69
2023/06/02 00:22:52;;;;;;;;;;;11.10;99.90;;;;;;5116912;27;20380;-69
2023/06/02 00:25:18;;;;;;;;;;;11.10;99.90;;;;;;5134381;27;19972;-69
2023/06/02 00:27:44;;;;;;;;;;;11.10;99.90;;;;;;5133650;27;19932;-67
2023/06/02 00:30:10;;;;;;;;;;;11.10;99.90;;;;;;5134253;27;19923;-67
2023/06/02 00:32:35;;;;;;;;;;;11.10;99.90;;;;;;5134313;27;19923;-67
2023/06/02 00:35:01;;;;;;;;;;;11.10;99.90;;;;;;5134672;27;19929;-67
2023/06/02 00:37:26;;;;;;;;;;;11.10;99.90;;;;;;5133824;27;19924;-67
2023/06/02 00:39:52;;;;;;;;;;;11.10;99.90;;;;;;5133615;27;19927;-67
2023/06/02 00:42:18;;;;;;;;;;;11.10;99.90;;;;;;5135023;27;20408;-68
2023/06/02 00:44:43;;;;;;;;;;;11.10;99.90;;;;;;5133945;27;19924;-68
2023/06/02 00:47:09;;;;;;;;;;;11.10;99.90;;;;;;5133998;27;19923;-68
2023/06/02 00:49:35;;;;;;;;;;;11.00;99.90;;;;;;5133522;27;20303;-68
2023/06/02 00:52:01;;;;;;;;;;;11.00;99.90;;;;;;5133336;27;20105;-68
2023/06/02 00:54:26;;;;;;;;;;;11.00;99.90;;;;;;5133815;27;20006;-68
2023/06/02 00:56:54;;;;;;;;;;;11.00;99.90;;;;;;5134151;27;20014;-68
2023/06/02 00:59:23;;;;;;;;;;;11.00;99.90;;;;;;5116484;27;19937;-68
2023/06/02 01:01:49;;;;;;;;;;;11.00;99.90;;;;;;5134306;27;19927;-68
2023/06/02 01:04:15;;;;;;;;;;;10.90;99.90;;;;;;5168197;27;19937;-69
2023/06/02 01:06:41;;;;;;;;;;;10.90;99.90;;;;;;5133607;27;19924;-69
2023/06/02 01:09:10;;;;;;;;;;;10.90;99.90;;;;;;5132766;27;19982;-69
2023/06/02 01:11:36;;;;;;;;;;;11.20;99.90;;;;;;5134095;27;19930;-69
2023/06/02 01:14:02;;;;;;;;;;;10.90;99.90;;;;;;5132679;27;20018;-69
2023/06/02 01:16:27;;;;;;;;;;;10.90;99.90;;;;;;5133368;27;19953;-70
2023/06/02 01:18:53;;;;;;;;;;;10.90;99.90;;;;;;5115834;27;19970;-69
2023/06/02 01:21:22;;;;;;;;;;;10.80;99.90;;;;;;5134006;27;19923;-69
2023/06/02 01:23:57;;;;;;;;;;;10.80;99.90;;;;;;5132926;27;19930;-70
2023/06/02 01:26:23;;;;;;;;;;;10.80;99.90;;;;;;5132905;27;19923;-69
2023/06/02 01:28:49;;;;;;;;;;;10.80;99.90;;;;;;5132766;27;19927;-68
2023/06/02 01:31:20;;;;;;;;;;;10.80;99.90;;;;;;5134102;27;20365;-67
2023/06/02 01:33:55;;;;;;;;;;;10.80;99.90;;;;;;5132945;27;19924;-69
2023/06/02 01:36:22;;;;;;;;;;;10.80;99.90;;;;;;5167503;27;19946;-67
2023/06/02 01:38:48;;;;;;;;;;;10.80;99.90;;;;;;5132740;27;20303;-69
2023/06/02 01:41:15;;;;;;;;;;;10.80;99.90;;;;;;5133916;27;20018;-68
2023/06/02 01:43:41;;;;;;;;;;;10.80;99.90;;;;;;5132978;27;20284;-68
2023/06/02 01:46:07;;;;;;;;;;;10.70;99.90;;;;;;5115020;27;19930;-68
2023/06/02 01:48:32;;;;;;;;;;;10.80;99.90;;;;;;5115199;27;20376;-68
2023/06/02 01:50:58;;;;;;;;;;;10.70;99.90;;;;;;5133284;27;19923;-69
2023/06/02 01:53:26;;;;;;;;;;;10.80;99.90;;;;;;5132632;27;19930;-68
2023/06/02 01:55:52;;;;;;;;;;;10.70;99.90;;;;;;5132016;27;19962;-69
2023/06/02 01:58:18;;;;;;;;;;;10.70;99.90;;;;;;5132515;27;19976;-68
2023/06/02 02:00:44;;;;;;;;;;;10.80;99.90;;;;;;5132196;27;20014;-68
2023/06/02 02:03:09;;;;;;;;;;;10.90;99.90;;;;;;5115069;27;19939;-68
2023/06/02 02:05:35;;;;;;;;;;;10.70;99.90;;;;;;5132588;27;19930;-68
2023/06/02 02:08:01;;;;;;;;;;;10.80;99.90;;;;;;5114718;27;20397;-69
2023/06/02 02:10:26;;;;;;;;;;;10.80;99.90;;;;;;5114687;27;19931;-69
2023/06/02 02:12:53;;;;;;;;;;;10.80;99.90;;;;;;5166544;27;20257;-70
2023/06/02 02:15:19;;;;;;;;;;;10.80;99.90;;;;;;5115423;27;19930;-68
2023/06/02 02:17:45;;;;;;;;;;;10.80;99.90;;;;;;5133235;27;19923;-68
2023/06/02 02:20:15;;;;;;;;;;;10.80;99.90;;;;;;5114675;27;20010;-68
2023/06/02 02:22:41;;;;;;;;;;;10.80;99.90;;;;;;5132227;27;19946;-69
2023/06/02 02:25:07;;;;;;;;;;;10.80;99.90;;;;;;5114698;28;20018;-68
2023/06/02 02:27:32;;;;;;;;;;;10.80;99.90;;;;;;5132296;27;19923;-69
2023/06/02 02:29:58;;;;;;;;;;;10.90;99.90;;;;;;5132692;27;20292;-69
2023/06/02 02:32:24;;;;;;;;;;;10.80;99.90;;;;;;5114735;28;19930;-68
2023/06/02 02:34:50;;;;;;;;;;;10.80;99.90;;;;;;5115025;28;20269;-69
2023/06/02 02:37:16;;;;;;;;;;;10.80;99.90;;;;;;5131387;28;19920;-68
2023/06/02 02:39:42;;;;;;;;;;;10.80;99.90;;;;;;5131677;28;19923;-67
2023/06/02 02:42:07;;;;;;;;;;;10.80;99.90;;;;;;5131293;28;19972;-67
2023/06/02 02:44:33;;;;;;;;;;;10.80;99.90;;;;;;5132109;28;20360;-69
2023/06/02 02:46:58;;;;;;;;;;;10.80;99.90;;;;;;5131663;28;19930;-68
2023/06/02 02:49:24;;;;;;;;;;;10.70;99.90;;;;;;5097343;28;19923;-69
2023/06/02 02:51:50;;;;;;;;;;;10.80;99.90;;;;;;5131503;28;19931;-69
2023/06/02 02:54:16;;;;;;;;;;;10.80;99.90;;;;;;5113961;28;19927;-68
2023/06/02 02:56:41;;;;;;;;;;;10.80;99.90;;;;;;5166627;27;19927;-68
2023/06/02 02:59:07;;;;;;;;;;;10.80;99.90;;;;;;5132787;28;19927;-68
2023/06/02 03:01:32;;;;;;;;;;;10.80;99.90;;;;;;5131391;28;19974;-70
2023/06/02 03:03:58;;;;;;;;;;;10.80;99.90;;;;;;5131272;28;19948;-70
2023/06/02 03:06:31;;;;;;;;;;;10.80;99.90;;;;;;5131680;28;19927;-68
2023/06/02 03:08:58;;;;;;;;;;;10.80;99.90;;;;;;5131558;28;19959;-69
2023/06/02 03:11:24;;;;;;;;;;;10.90;99.90;;;;;;5114259;28;19931;-68
2023/06/02 03:13:50;;;;;;;;;;;10.90;99.90;;;;;;5132465;27;19931;-69
2023/06/02 03:16:16;;;;;;;;;;;10.90;99.90;;;;;;5130928;28;20306;-68
2023/06/02 03:18:41;;;;;;;;;;;10.90;99.90;;;;;;5131523;28;20276;-68
2023/06/02 03:21:07;;;;;;;;;;;10.90;99.90;;;;;;5166069;27;19927;-68
2023/06/02 03:23:33;;;;;;;;;;;10.90;99.90;;;;;;5136079;27;19971;-69
2023/06/02 03:26:00;;;;;;;;;;;10.90;99.90;;;;;;5135216;27;19923;-69
2023/06/02 03:28:25;;;;;;;;;;;10.90;99.90;;;;;;5152124;27;19924;-68
2023/06/02 03:30:51;;;;;;;;;;;10.90;99.90;;;;;;5134727;27;20080;-70
2023/06/02 03:33:16;;;;;;;;;;;10.90;99.90;;;;;;5117452;27;20304;-67
2023/06/02 03:35:42;;;;;;;;;;;10.90;99.90;;;;;;5117763;27;19946;-68
2023/06/02 03:38:08;;;;;;;;;;;10.90;99.90;;;;;;5134432;27;19924;-68
2023/06/02 03:40:34;;;;;;;;;;;10.90;99.90;;;;;;5134749;27;19962;-68
2023/06/02 03:42:59;;;;;;;;;;;10.90;99.90;;;;;;5134977;27;19976;-68
2023/06/02 03:45:25;;;;;;;;;;;11.00;99.90;;;;;;5135565;27;19928;-68
2023/06/02 03:47:51;;;;;;;;;;;11.00;99.90;;;;;;5100712;27;19953;-68
2023/06/02 03:50:16;;;;;;;;;;;11.00;99.90;;;;;;5134417;27;19923;-68
2023/06/02 03:52:42;;;;;;;;;;;11.00;99.90;;;;;;5134752;27;19924;-68
2023/06/02 03:55:08;;;;;;;;;;;11.00;99.90;;;;;;5117307;27;20387;-69
2023/06/02 03:57:33;;;;;;;;;;;11.00;99.90;;;;;;5117639;27;19927;-68
2023/06/02 03:59:59;;;;;;;;;;;11.00;99.90;;;;;;5134748;27;19924;-68
2023/06/02 04:02:25;;;;;;;;;;;11.00;99.90;;;;;;5117286;27;19928;-68
2023/06/02 04:04:51;;;;;;;;;;;11.00;99.90;;;;;;5117583;27;19924;-68
2023/06/02 04:07:16;;;;;;;;;;;11.00;99.90;;;;;;5135052;27;19923;-68
2023/06/02 04:09:42;;;;;;;;;;;11.00;99.90;;;;;;5135459;27;19923;-68
2023/06/02 04:12:08;;;;;;;;;;;11.10;99.90;;;;;;5134394;27;20018;-69
2023/06/02 04:14:33;;;;;;;;;;;11.10;99.90;;;;;;5134136;27;19946;-68
2023/06/02 04:16:59;;;;;;;;;;;11.10;99.90;;;;;;5134285;27;20373;-68
2023/06/02 04:19:25;;;;;;;;;;;11.10;99.90;;;;;;5116345;27;19923;-68
2023/06/02 04:21:50;;;;;;;;;;;11.10;99.90;;;;;;5100159;27;19924;-70
2023/06/02 04:24:16;;;;;;;;;;;11.10;99.90;;;;;;5116572;27;19930;-68
2023/06/02 04:26:41;;;;;;;;;;;11.20;99.90;;;;;;5135411;27;19923;-68
2023/06/02 04:29:07;;;;;;;;;;;11.20;99.90;;;;;;5133962;27;19927;-68
2023/06/02 04:31:43;;;;;;;;;;;11.20;99.90;;;;;;5133241;27;19923;-68
2023/06/02 04:34:12;;;;;;;;;;;11.20;99.90;;;;;;5135113;27;19930;-68
2023/06/02 04:36:41;;;;;;;;;;;11.30;99.90;;;;;;5134248;27;19927;-68
2023/06/02 04:39:07;;;;;;;;;;;11.30;99.90;;;;;;5117000;27;19970;-68
2023/06/02 04:41:33;;;;;;;;;;;11.30;99.90;;;;;;5132926;27;19976;-68
2023/06/02 04:44:00;;;;;;;;;;;11.30;99.90;;;;;;5133819;27;19924;-68
2023/06/02 04:46:26;;;;;;;;;;;11.30;99.90;;;;;;5133174;27;20026;-68
2023/06/02 04:48:56;;;;;;;;;;;11.30;99.90;;;;;;5133433;27;19931;-67
2023/06/02 04:51:28;;;;;;;;;;;11.40;99.90;;;;;;5116378;27;20014;-68
2023/06/02 04:53:54;;;;;;;;;;;11.40;99.90;;;;;;5133726;27;20425;-68
2023/06/02 04:56:20;;;;;;;;;;;11.40;99.90;;;;;;5116201;27;19924;-68
2023/06/02 04:58:46;;;;;;;;;;;11.40;99.90;;;;;;5133601;27;19982;-68
2023/06/02 05:01:11;;;;;;;;;;;11.50;99.90;;;;;;5133309;27;20009;-68
2023/06/02 05:03:37;;;;;;;;;;;11.50;99.90;;;;;;5133105;27;19927;-68
2023/06/02 05:06:02;;;;;;;;;;;11.50;99.90;;;;;;5115989;27;19942;-68
2023/06/02 05:08:28;;;;;;;;;;;11.60;99.90;;;;;;5115839;27;20321;-68
2023/06/02 05:10:53;;;;;;;;;;;11.60;99.90;;;;;;5133282;27;19935;-69
2023/06/02 05:13:19;;;;;;;;;;;11.60;99.90;;;;;;5115619;27;19927;-68
2023/06/02 05:15:45;;;;;;;;;;;11.60;99.90;;;;;;5167743;27;19982;-68
2023/06/02 05:18:19;;;;;;;;;;;11.70;99.90;;;;;;5133431;27;20002;-70
2023/06/02 05:20:45;;;;;;;;;;;11.70;99.90;;;;;;5150430;27;19924;-70
2023/06/02 05:23:10;;;;;;;;;;;11.70;99.90;;;;;;5134179;27;20063;-70
2023/06/02 05:25:37;;;;;;;;;;;11.80;99.90;;;;;;5132758;27;19985;-70
2023/06/02 05:28:03;;;;;;;;;;;11.80;99.90;;;;;;5134481;27;20341;-69
2023/06/02 05:30:28;;;;;;;;;;;11.80;99.90;;;;;;5132705;27;19931;-69
2023/06/02 05:32:54;;;;;;;;;;;11.90;99.90;;;;;;5132325;27;19923;-70
2023/06/02 05:35:20;;;;;;;;;;;12.00;99.90;;;;;;5115458;27;19929;-70
2023/06/02 05:37:45;;;;;;;;;;;12.00;99.90;;;;;;5167186;27;19924;-69
2023/06/02 05:40:11;;;;;;;;;;;12.10;99.90;;;;;;5115559;27;19923;-69
2023/06/02 05:42:37;;;;;;;;;;;12.10;99.90;;;;;;5149885;27;19927;-69
2023/06/02 05:45:05;;;;;;;;;;;12.20;99.90;;;;;;5131966;27;19976;-69
2023/06/02 05:47:31;;;;;;;;;;;12.20;99.90;;;;;;5149786;27;19923;-68
2023/06/02 05:49:57;;;;;;;;;;;12.30;99.90;;;;;;5132465;27;20419;-68
2023/06/02 05:52:22;;;;;;;;;;;12.30;99.90;;;;;;5133020;27;19930;-70
2023/06/02 05:54:48;;;;;;;;;;;12.40;99.90;;;;;;5132275;27;19923;-69
2023/06/02 05:57:13;;;;;;;;;;;12.40;99.90;;;;;;5131896;27;20004;-69
2023/06/02 05:59:39;;;;;;;;;;;12.40;99.90;;;;;;5131862;27;20010;-68
2023/06/02 06:02:05;;;;;;;;;;;12.50;99.90;;;;;;5115133;27;19980;-69
2023/06/02 06:04:31;;;;;;;;;;;12.50;99.90;;;;;;5132895;27;19924;-68
2023/06/02 06:06:58;;;;;;;;;;;12.60;99.90;;;;;;5133369;27;19988;-69
2023/06/02 06:09:23;;;;;;;;;;;12.60;99.90;;;;;;5131837;27;20037;-69
2023/06/02 06:11:49;;;;;;;;;;;12.80;99.90;;;;;;5133285;27;20018;-67
2023/06/02 06:14:15;;;;;;;;;;;12.70;99.90;;;;;;5132041;27;20005;-70
2023/06/02 06:16:41;;;;;;;;;;;12.80;99.90;;;;;;5131734;27;20033;-68
2023/06/02 06:19:06;;;;;;;;;;;12.90;99.90;;;;;;5131963;27;19923;-69
2023/06/02 06:21:32;;;;;;;;;;;12.90;99.90;;;;;;5131376;27;19923;-69
2023/06/02 06:23:58;;;;;;;;;;;13.00;99.90;;;;;;5129922;27;20353;-69
2023/06/02 06:26:23;;;;;;;;;;;13.00;99.90;;;;;;5130916;27;19931;-69
2023/06/02 06:28:49;;;;;;;;;;;13.10;99.90;;;;;;5131574;27;19923;-69
2023/06/02 06:31:15;;;;;;;;;;;13.10;99.90;;;;;;5114450;27;20070;-71
2023/06/02 06:33:40;;;;;;;;;;;13.20;99.90;;;;;;5114063;28;20262;-68
2023/06/02 06:36:06;;;;;;;;;;;13.30;99.90;;;;;;5130208;27;19923;-68
2023/06/02 06:38:32;;;;;;;;;;;13.40;99.90;;;;;;5130948;28;20423;-69
2023/06/02 06:40:57;;;;;;;;;;;13.40;99.90;;;;;;5131353;28;19927;-68
2023/06/02 06:43:23;;;;;;;;;;;13.60;99.90;;;;;;5149059;27;19949;-70
2023/06/02 06:45:49;;;;;;;;;;;13.70;99.90;;;;;;5131195;28;19972;-70
2023/06/02 06:48:14;;;;;;;;;;;14.00;99.90;;;;;;5131704;28;20349;-69
2023/06/02 06:50:40;;;;;;;;;;;14.30;99.90;;;;;;5132132;28;19934;-69
2023/06/02 06:53:07;;;;;;;;;;;14.60;99.90;;;;;;5132791;28;19927;-69
2023/06/02 06:55:33;;;;;;;;;;;14.60;99.90;;;;;;5132910;27;19927;-71
2023/06/02 06:57:59;;;;;;;;;;;14.70;99.90;;;;;;5153399;27;19983;-70
2023/06/02 07:00:24;;;;;;;;;;;15.00;99.90;;;;;;5118581;27;20015;-70
2023/06/02 07:02:51;;;;;;;;;;;15.60;99.90;;;;;;5136696;27;20561;-70
2023/06/02 07:05:16;;;;;;;;;;;16.60;99.90;;;;;;5118751;27;19930;-69
2023/06/02 07:07:43;;;;;;;;;;;17.20;99.90;;;;;;5170381;27;20300;-70
2023/06/02 07:10:08;;;;;;;;;;;17.80;99.90;;;;;;5136023;27;19924;-72
2023/06/02 07:12:34;;;;;;;;;;;18.60;99.90;;;;;;5134826;27;19934;-71
2023/06/02 07:15:00;;;;;;;;;;;19.20;99.90;;;;;;5118747;27;20006;-71
2023/06/02 07:17:26;;;;;;;;;;;19.30;99.90;;;;;;5137205;27;19926;-70
2023/06/02 07:19:51;;;;;;;;;;;19.10;99.90;;;;;;5117872;27;20062;-70
2023/06/02 07:22:17;;;;;;;;;;;19.10;99.90;;;;;;5135833;27;19934;-69
2023/06/02 07:24:43;;;;;;;;;;;18.90;99.90;;;;;;5134626;27;19980;-68
2023/06/02 07:27:09;;;;;;;;;;;19.20;99.90;;;;;;5135367;27;19924;-68
2023/06/02 07:29:35;;;;;;;;;;;19.60;99.90;;;;;;5135760;27;19996;-69
2023/06/02 07:32:00;;;;;;;;;;;19.60;99.90;;;;;;5135324;27;20018;-69
2023/06/02 07:34:26;;;;;;;;;;;20.10;99.90;;;;;;5135083;27;20266;-70
2023/06/02 07:36:52;;;;;;;;;;;20.20;99.90;;;;;;5134502;27;19923;-70
2023/06/02 07:39:18;;;;;;;;;;;20.40;99.90;;;;;;5134588;27;20240;-70
2023/06/02 07:41:44;;;;;;;;;;;21.00;99.90;;;;;;5134447;27;20377;-71
2023/06/02 07:44:09;;;;;;;;;;;21.80;99.90;;;;;;5117599;27;19924;-68
2023/06/02 07:46:35;;;;;;;;;;;22.40;99.90;;;;;;5135864;27;19923;-69
2023/06/02 07:49:02;;;;;;;;;;;22.60;99.90;;;;;;5133475;27;20309;-69
2023/06/02 07:51:28;;;;;;;;;;;22.70;99.90;;;;;;5135653;27;20368;-68
2023/06/02 07:53:54;;;;;;;;;;;22.70;99.90;;;;;;5135462;27;19957;-69
2023/06/02 07:56:20;;;;;;;;;;;;;;;;;;5134283;27;19930;-69
2023/06/02 07:58:46;;;;;;;;;;;;;;;;;;5134557;27;19923;-69
2023/06/02 08:01:12;;;;;;;;;;;;;;;;;;5134947;27;20000;-69
2023/06/02 08:03:40;;;;;;;;;;;;;;;;;;5169308;27;20010;-71
2023/06/02 08:06:06;;;;;;;;;;;;;;;;;;5169516;27;19927;-70
2023/06/02 08:08:32;;;;;;;;;;;;;;;;;;5151450;27;19924;-69
2023/06/02 08:11:01;;;;;;;;;;;;;;;;;;5134608;27;20407;-69
2023/06/02 08:13:26;;;;;;;;;;;;;;;;;;5134300;27;19931;-68
2023/06/02 08:15:52;;;;;;;;;;;;;;;;;;5134754;27;20296;-69
2023/06/02 08:18:19;;;;;;;;;;;;;;;;;;5133978;27;19923;-69
2023/06/02 08:20:45;;;;;;;;;;;;;;;;;;5134758;27;19923;-69
2023/06/02 08:23:10;;;;;;;;;;;23.00;99.20;;;;;;5135313;27;20064;-69
2023/06/02 08:25:40;;;;;;;;;;;25.80;94.10;;;;;;5134937;27;19975;-69
2023/06/02 08:28:06;;;;;;;;;;;25.90;94.50;;;;;;5133888;27;19924;-70
2023/06/02 08:30:33;;;;;;;;;;;25.70;91.50;;;;;;5135376;27;19923;-71
2023/06/02 08:33:02;;;;;;;;;;;25.50;91.20;;;;;;5133370;27;19924;-68
2023/06/02 08:35:28;;;;;;;;;;;25.50;91.20;;;;;;5168789;27;19986;-68
2023/06/02 08:37:55;;;;;;;;;;;25.70;91.40;;;;;;5133770;27;19928;-73
2023/06/02 08:40:23;;;;;;;;;;;25.80;91.20;;;;;;5116799;27;20368;-71
2023/06/02 08:42:50;;;;;;;;;;;26.00;91.90;;;;;;5134858;27;20330;-69
2023/06/02 08:45:20;;;;;;;;;;;26.10;92.60;;;;;;5133919;27;19967;-71
2023/06/02 08:47:48;;;;;;;;;;;25.80;91.80;;;;;;5133662;27;19924;-70
2023/06/02 08:50:14;;;;;;;;;;;25.60;91.70;;;;;;5133423;27;19934;-69
2023/06/02 08:52:40;;;;;;;;;;;25.30;92.40;;;;;;5133894;27;19924;-70
2023/06/02 08:55:06;;;;;;;;;;;25.40;92.60;;;;;;5167821;27;20014;-70
2023/06/02 08:57:32;;;;;;;;;;;25.40;92.40;;;;;;5133829;27;20380;-69
2023/06/02 08:59:58;;;;;;;;;;;25.30;92.60;;;;;;5133115;27;19950;-66
2023/06/02 09:02:23;;;;;;;;;;;25.30;92.70;;;;;;5133489;27;19971;-67
2023/06/02 09:04:49;;;;;;;;;;;25.50;92.30;;;;;;5134230;27;19984;-67
2023/06/02 09:07:15;;;;;;;;;;;25.60;92.60;;;;;;5116641;27;19924;-67
2023/06/02 09:09:48;;;;;;;;;;;25.60;91.60;;;;;;5133197;27;19931;-67
2023/06/02 09:12:18;;;;;;;;;;;25.50;91.20;;;;;;5150759;27;19931;-67
2023/06/02 09:14:45;;;;;;;;;;;25.40;91.90;;;;;;5134381;27;19985;-68
2023/06/02 09:17:27;;;;;;;;;;;25.50;91.30;;;;;;5132998;27;20064;-68
2023/06/02 09:19:54;;;;;;;;;;;25.20;92.00;;;;;;5114433;27;19923;-68
2023/06/02 09:22:19;;;;;;;;;;;25.00;91.80;;;;;;5133296;27;20060;-66
2023/06/02 09:24:45;;;;;;;;;;;25.10;91.80;;;;;;5116023;27;19966;-66
2023/06/02 09:27:14;;;;;;;;;;;25.10;91.90;;;;;;5133471;27;19923;-67
2023/06/02 09:29:41;;;;;;;;;;;25.30;91.50;;;;;;5133189;27;19923;-67
2023/06/02 09:32:10;;;;;;;;;;;25.30;90.70;;;;;;5132421;27;20273;-66
2023/06/02 09:34:37;;;;;;;;;;;25.30;90.80;;;;;;5133101;27;19930;-67
2023/06/02 09:37:22;;;;;;;;;;;25.20;90.40;;;;;;5132252;27;19927;-67
2023/06/02 09:39:53;;;;;;;;;;;25.30;90.70;;;;;;5132845;27;19934;-67
2023/06/02 09:42:19;;;;;;;;;;;25.30;90.30;;;;;;5132871;27;19924;-67
2023/06/02 09:45:02;;;;;;;;;;;25.30;90.30;;;;;;5132968;27;19930;-67
2023/06/02 09:47:27;;;;;;;;;;;25.30;89.40;;;;;;5132430;27;20342;-68
2023/06/02 09:49:53;;;;;;;;;;;25.30;89.50;;;;;;5130978;27;19927;-71
2023/06/02 09:52:19;;;;;;;;;;;25.30;86.80;;;;;;5114861;27;19923;-69
2023/06/02 09:54:45;;;;;;;;;;;;;;;;;;5114606;27;20011;-68
2023/06/02 09:57:15;;;;;;;;;;;24.80;86.30;;;;;;5131044;27;19924;-67
2023/06/02 09:59:41;;;;;;;;;;;23.80;84.90;;;;;;5132140;27;19970;-68
2023/06/02 10:02:08;;;;;;;;;;;23.30;85.40;;;;;;5130952;27;20356;-69
2023/06/02 10:04:33;;;;;;;;;;;23.20;85.70;;;;;;5132033;27;19930;-70
2023/06/02 10:07:06;;;;;;;;;;;23.10;86.60;;;;;;5166061;27;20318;-69
2023/06/02 10:09:51;;;;;;;;;;;22.90;86.30;;;;;;5113446;27;20014;-70
2023/06/02 10:12:35;;;;;;;;;;;22.70;86.30;;;;;;5131717;27;19927;-68
2023/06/02 10:15:08;;;;;;;;;;;22.70;87.00;;;;;;5132348;27;20382;-68
2023/06/02 10:17:40;;;;;;;;;;;22.60;85.80;;;;;;5131767;27;20385;-69
2023/06/02 10:20:09;;;;;;;;;;;22.40;85.20;;;;;;5131591;27;20288;-69
2023/06/02 10:22:53;;;;;;;;;;;22.40;84.60;;;;;;5132264;27;19930;-70
2023/06/02 10:25:26;;;;;;;;;;;22.30;85.30;;;;;;5130759;27;20284;-70
2023/06/02 10:27:52;;;;;;;;;;;22.20;86.90;;;;;;5131858;27;19924;-68
2023/06/02 10:30:21;;;;;;;;;;;22.10;88.00;;;;;;5131277;27;19924;-69
2023/06/02 10:32:48;;;;;;;;;;;22.00;86.90;;;;;;5129618;27;19942;-69
2023/06/02 10:35:14;;;;;;;;;;;21.80;88.60;;;;;;5131249;27;20365;-70
2023/06/02 10:37:40;;;;;;;;;;;21.80;89.70;;;;;;5131651;28;19923;-69
2023/06/02 10:40:10;;;;;;;;;;;21.70;89.70;;;;;;5131882;27;19935;-69
2023/06/02 10:42:36;;;;;;;;;;;21.80;90.90;;;;;;5097737;28;19923;-70
2023/06/02 10:45:14;;;;;;;;;;;21.90;90.90;;;;;;5132272;27;19923;-70
2023/06/02 10:47:39;;;;;;;;;;;21.80;91.00;;;;;;5114639;28;20330;-69
2023/06/02 10:50:10;;;;;;;;;;;21.80;91.60;;;;;;5113891;28;19923;-69
2023/06/02 10:52:54;;;;;;;;;;;21.60;92.40;;;;;;5132484;28;20585;-69
2023/06/02 10:55:20;;;;;;;;;;;21.50;92.40;;;;;;5148525;27;19930;-69
2023/06/02 10:57:53;;;;;;;;;;;21.50;93.40;;;;;;5131886;28;20022;-69
2023/06/02 11:00:27;;;;;;;;;;;21.50;93.20;;;;;;5165821;27;20411;-68
2023/06/02 11:02:53;;;;;;;;;;;21.30;92.10;;;;;;5131566;28;20368;-69
2023/06/02 11:05:25;;;;;;;;;;;21.30;91.90;;;;;;5132142;28;19941;-69
2023/06/02 11:08:09;;;;;;;;;;;21.20;92.90;;;;;;5131558;28;20333;-70
2023/06/02 11:10:48;;;;;;;;;;;21.20;92.50;;;;;;5131738;28;19930;-69
2023/06/02 11:13:18;;;;;;;;;;;21.30;93.50;;;;;;5148453;27;20376;-70
2023/06/02 11:15:59;;;;;;;;;;;21.30;94.50;;;;;;5131050;28;19931;-71
2023/06/02 11:18:33;;;;;;;;;;;21.40;94.80;;;;;;5131238;28;19978;-70
2023/06/02 11:21:01;;;;;;;;;;;21.40;95.10;;;;;;5131387;28;20342;-71
2023/06/02 11:23:26;;;;;;;;;;;21.40;95.30;;;;;;5131070;28;19923;-71
2023/06/02 11:26:01;;;;;;;;;;;21.30;94.80;;;;;;5131580;28;20308;-72
2023/06/02 11:28:27;;;;;;;;;;;21.30;95.70;;;;;;5113732;28;19930;-72
2023/06/02 11:31:06;;;;;;;;;;;21.30;94.80;;;;;;5165559;27;19923;-71
2023/06/02 11:33:34;;;;;;;;;;;21.30;95.20;;;;;;5131495;28;19924;-71
2023/06/02 11:36:00;;;;;;;;;;;21.20;95.10;;;;;;5132603;27;20440;-71
2023/06/02 11:38:32;;;;;;;;;;;21.30;95.00;;;;;;5113963;28;20224;-72
2023/06/02 11:41:10;;;;;;;;;;;21.30;95.70;;;;;;5131322;27;19935;-72
2023/06/02 11:43:36;;;;;;;;;;;21.30;95.40;;;;;;5117221;27;20019;-71
2023/06/02 11:46:09;;;;;;;;;;;21.20;95.00;;;;;;5117867;27;19928;-72
2023/06/02 11:48:41;;;;;;;;;;;21.00;95.10;;;;;;5100579;27;19947;-72
2023/06/02 11:51:10;;;;;;;;;;;21.20;95.70;;;;;;5134706;27;20356;-74
2023/06/02 11:53:38;;;;;;;;;;;21.20;95.70;;;;;;5134874;27;19924;-72
2023/06/02 11:56:06;;;;;;;;;;;21.20;96.20;;;;;;5135015;27;19923;-73
2023/06/02 11:58:39;;;;;;;;;;;21.20;96.10;;;;;;5134662;27;20014;-73
2023/06/02 12:01:09;;;;;;;;;;;21.00;96.60;;;;;;5134781;27;20284;-72
2023/06/02 12:03:36;;;;;;;;;;;21.00;97.30;;;;;;5117790;27;20335;-73
2023/06/02 12:06:12;;;;;;;;;;;21.00;97.50;;;;;;5134508;27;20407;-71
2023/06/02 12:08:37;;;;;;;;;;;20.90;97.60;;;;;;5135840;27;19928;-71
2023/06/02 12:11:03;;;;;;;;;;;20.90;97.90;;;;;;5117336;27;20651;-72
2023/06/02 12:13:30;;;;;;;;;;;20.90;97.80;;;;;;5134342;27;19979;-70
2023/06/02 12:15:57;;;;;;;;;;;20.90;98.10;;;;;;5134547;27;19978;-71
2023/06/02 12:18:27;;;;;;;;;;;20.80;97.80;;;;;;5134317;27;20007;-70
2023/06/02 12:20:53;;;;;;;;;;;20.90;98.20;;;;;;5134187;27;20067;-70
2023/06/02 12:23:19;;;;;;;;;;;20.80;98.20;;;;;;5116460;27;19923;-70
2023/06/02 12:25:55;;;;;;;;;;;20.80;98.30;;;;;;5134082;27;19930;-71
2023/06/02 12:28:21;;;;;;;;;;;20.90;98.40;;;;;;5133857;27;19924;-69
2023/06/02 12:30:46;;;;;;;;;;;20.90;98.80;;;;;;5135193;27;19931;-69
2023/06/02 12:33:12;;;;;;;;;;;20.90;98.80;;;;;;5168615;27;19924;-70
2023/06/02 12:35:39;;;;;;;;;;;20.70;99.50;;;;;;5133852;27;19928;-69
2023/06/02 12:38:05;;;;;;;;;;;20.70;99.70;;;;;;5134232;27;19923;-67
2023/06/02 12:40:31;;;;;;;;;;;20.70;99.50;;;;;;5133453;27;19979;-70
2023/06/02 12:42:57;;;;;;;;;;;20.70;99.30;;;;;;5133714;27;20405;-71
2023/06/02 12:45:23;;;;;;;;;;;20.70;99.00;;;;;;5133346;27;20387;-71
2023/06/02 12:47:51;;;;;;;;;;;20.80;99.70;;;;;;5099843;27;20013;-70
2023/06/02 12:50:21;;;;;;;;;;;20.80;99.60;;;;;;5134327;27;20311;-70
2023/06/02 12:52:47;;;;;;;;;;;20.80;99.60;;;;;;5116243;27;19927;-69
2023/06/02 12:55:13;;;;;;;;;;;20.80;99.80;;;;;;5133691;27;19931;-71
2023/06/02 12:57:39;;;;;;;;;;;20.80;99.80;;;;;;5133073;27;19924;-71
2023/06/02 13:00:05;;;;;;;;;;;20.70;99.60;;;;;;5133334;27;19977;-71
2023/06/02 13:02:30;;;;;;;;;;;20.70;99.60;;;;;;5133230;27;19923;-70
2023/06/02 13:04:56;;;;;;;;;;;20.70;99.90;;;;;;5133432;27;20084;-69
2023/06/02 13:07:22;;;;;;;;;;;20.70;99.80;;;;;;5132877;27;19948;-70
2023/06/02 13:09:47;;;;;;;;;;;20.80;99.60;;;;;;5134545;27;20019;-68
2023/06/02 13:12:13;;;;;;;;;;;20.80;99.60;;;;;;5115958;27;19923;-69
2023/06/02 13:14:39;;;;;;;;;;;20.80;99.70;;;;;;5133695;27;19919;-69
2023/06/02 13:17:06;;;;;;;;;;;20.70;99.50;;;;;;5133119;27;19942;-68
2023/06/02 13:19:32;;;;;;;;;;;20.80;99.70;;;;;;5150289;27;19931;-69
2023/06/02 13:22:01;;;;;;;;;;;20.80;99.90;;;;;;5132753;27;19923;-69
2023/06/02 13:24:27;;;;;;;;;;;20.90;99.90;;;;;;5132842;27;19944;-69
2023/06/02 13:26:53;;;;;;;;;;;20.90;99.80;;;;;;5116105;27;19930;-68
2023/06/02 13:29:19;;;;;;;;;;;20.90;99.80;;;;;;5133855;27;19982;-69
2023/06/02 13:31:45;;;;;;;;;;;20.70;99.80;;;;;;5115539;27;19966;-68
2023/06/02 13:34:10;;;;;;;;;;;20.50;99.60;;;;;;5132622;27;19927;-68
2023/06/02 13:36:36;;;;;;;;;;;20.40;99.90;;;;;;5133648;27;19923;-69
2023/06/02 13:39:02;;;;;;;;;;;20.50;99.90;;;;;;5115835;27;20018;-69
2023/06/02 13:41:28;;;;;;;;;;;20.60;99.70;;;;;;5132211;27;20038;-69
2023/06/02 13:43:54;;;;;;;;;;;20.60;99.80;;;;;;5132662;27;19966;-69
2023/06/02 13:46:21;;;;;;;;;;;20.50;99.90;;;;;;5132854;27;19978;-69
2023/06/02 13:48:46;;;;;;;;;;;20.60;99.90;;;;;;5132322;27;20368;-69
2023/06/02 13:51:12;;;;;;;;;;;20.70;99.90;;;;;;5114824;27;19983;-68
2023/06/02 13:53:37;;;;;;;;;;;20.70;99.80;;;;;;5131890;27;19927;-68
2023/06/02 13:56:03;;;;;;;;;;;20.60;99.80;;;;;;5132384;27;19971;-68
2023/06/02 13:58:34;;;;;;;;;;;20.60;99.90;;;;;;5097633;27;19931;-68
2023/06/02 14:00:59;;;;;;;;;;;20.50;99.90;;;;;;5133474;27;19923;-71
2023/06/02 14:03:25;;;;;;;;;;;20.50;99.90;;;;;;5131779;27;20273;-72
2023/06/02 14:05:50;;;;;;;;;;;20.40;99.90;;;;;;5132336;27;20280;-71
2023/06/02 14:08:16;;;;;;;;;;;20.30;99.90;;;;;;5098225;27;20365;-69
2023/06/02 14:10:42;;;;;;;;;;;20.20;99.90;;;;;;5166437;27;19949;-71
2023/06/02 14:13:08;;;;;;;;;;;20.30;99.90;;;;;;5097703;27;19930;-73
2023/06/02 14:15:33;;;;;;;;;;;20.30;99.90;;;;;;5114417;27;19968;-72
2023/06/02 14:17:59;;;;;;;;;;;20.40;99.90;;;;;;5114719;27;20365;-73
2023/06/02 14:20:25;;;;;;;;;;;20.20;99.90;;;;;;5115054;27;19923;-73